Salida, CO

12:54 PM MDT on October 01, 2016 (GMT -0600)
Salida

Weather History for KANK - April, 2013

Change the Weather History Date:

Monday, April 29, 2013

  Actual Average (KGUC) Record (KGUC)
Temperature  
Mean Temperature 56 °F -  
Max Temperature 74 °F 55 °F 73 °F (2007)
Min Temperature 39 °F 25 °F 19 °F (2014)
Degree Days  
Heating Degree Days 8    
Growing Degree Days 6 (Base 50)    
Moisture  
Dew Point 17 °F    
Average Humidity 23    
Maximum Humidity 50    
Minimum Humidity 8    
Precipitation  
Precipitation 0.00 in - - ()
Sea Level Pressure  
Sea Level Pressure 30.03 in    
Wind  
Wind Speed 9 mph (West)    
Max Wind Speed 25 mph    
Max Gust Speed 34 mph    
Visibility 10 miles    
Events      
Averages and records for this station are not official NWS values.
T = Trace of Precipitation, MM = Missing Value Source: NWS Daily Summary

Daily Weather History Graph

Daily Weather History Graph

Search for Another Location

Airport or City:

Trip Planner

Search our weather history database for the weather conditions in past years. The results will help you decide how hot, cold, wet, or windy it might be!

Date:

Astronomy

Apr. 29, 2013 Rise Set
Actual Time 6:09 AM MDT 7:54 PM MDT
Civil Twilight 5:40 AM MDT 8:23 PM MDT
Nautical Twilight 5:06 AM MDT 8:57 PM MDT
Astronomical Twilight 4:29 AM MDT 9:34 PM MDT
Moon No Moon Rise 9:34 AM MDT (4/29)
Length of Visible Light 14h 42m
Length of Day
13h 45m
Waning Gibbous, 79% of the Moon is Illuminated
Apr 29
Waning Gibbous
May 2
Last Quarter
May 9
New
May 17
First Quarter
May 24
Full

Hourly Weather History & Observations

Time (MDT) Temp. Windchill Dew Point Humidity Pressure Visibility Wind Dir Wind Speed Gust Speed Precip Events Conditions
12:15 AM 52.5 °F - 18.3 °F 26% 30.13 in 10.0 mi NW 5.8 mph - N/A   Clear
12:35 AM 49.5 °F - 19.4 °F 31% 30.13 in 10.0 mi Calm Calm - N/A   Clear
12:55 AM 49.5 °F - 19.2 °F 30% 30.14 in 10.0 mi WSW 4.6 mph - N/A   Clear
1:15 AM 49.3 °F - 19.8 °F 31% 30.14 in 10.0 mi West 5.8 mph - N/A   Clear
1:35 AM 50.0 °F - 19.9 °F 31% 30.14 in 10.0 mi West 3.5 mph - N/A   Clear
1:55 AM 47.5 °F - 20.8 °F 35% 30.14 in 10.0 mi SW 6.9 mph - N/A   Clear
2:15 AM 48.2 °F - 19.4 °F 32% 30.13 in 10.0 mi WSW 8.1 mph - N/A   Clear
2:35 AM 47.5 °F - 20.1 °F 34% 30.13 in 10.0 mi NNW 3.5 mph - N/A   Clear
2:55 AM 45.5 °F 43.2 °F 21.2 °F 38% 30.13 in 10.0 mi SW 4.6 mph - N/A   Clear
3:15 AM 45.3 °F 39.3 °F 21.7 °F 39% 30.12 in 10.0 mi SW 12.7 mph - N/A   Clear
3:35 AM 46.4 °F 41.9 °F 21.7 °F 38% 30.12 in 10.0 mi West 9.2 mph - N/A   Clear
3:55 AM 45.7 °F 41.5 °F 21.7 °F 39% 30.12 in 10.0 mi West 8.1 mph - N/A   Clear
4:15 AM 45.1 °F 40.8 °F 22.1 °F 40% 30.11 in 10.0 mi West 8.1 mph - N/A   Clear
4:55 AM 44.8 °F 40.4 °F 21.9 °F 40% 30.11 in 10.0 mi NW 8.1 mph - N/A   Clear
5:15 AM 42.8 °F - 22.1 °F 44% 30.10 in 10.0 mi Calm Calm - N/A   Clear
5:35 AM 41.4 °F 39.4 °F 22.1 °F 46% 30.10 in 10.0 mi West 3.5 mph - N/A   Clear
5:55 AM 41.4 °F - 22.1 °F 46% 30.10 in 10.0 mi Calm Calm - N/A   Clear
6:15 AM 39.6 °F - 22.1 °F 50% 30.10 in 10.0 mi Calm Calm - N/A   Clear
6:35 AM 42.3 °F - 22.5 °F 45% 30.10 in 10.0 mi Calm Calm - N/A   Clear
6:55 AM 42.3 °F - 23.2 °F 47% 30.10 in 10.0 mi Calm Calm - N/A   Clear
7:15 AM 43.7 °F 41.1 °F 24.3 °F 46% 30.10 in 10.0 mi North 4.6 mph - N/A   Clear
7:35 AM 46.9 °F - 25.7 °F 44% 30.09 in 10.0 mi North 6.9 mph - N/A   Clear
7:55 AM 47.5 °F - 26.2 °F 44% 30.09 in 10.0 mi North 5.8 mph - N/A   Clear
8:15 AM 50.0 °F - 25.7 °F 39% 30.09 in 10.0 mi North 4.6 mph - N/A   Clear
8:35 AM 53.6 °F - 24.1 °F 32% 30.09 in 10.0 mi Calm Calm - N/A   Clear
8:55 AM 55.8 °F - 25.7 °F 31% 30.07 in 10.0 mi NNE 6.9 mph - N/A   Clear
9:15 AM 58.6 °F - 24.3 °F 27% 30.06 in 10.0 mi WNW 5.8 mph - N/A   Clear
9:35 AM 64.9 °F - 20.5 °F 18% 30.06 in 10.0 mi WSW 16.1 mph 23.0 mph N/A   Clear
9:55 AM 65.5 °F - 18.9 °F 17% 30.05 in 10.0 mi West 16.1 mph 24.2 mph N/A   Clear
10:15 AM 66.9 °F - 19.4 °F 16% 30.05 in 10.0 mi WSW 20.7 mph 28.8 mph N/A   Clear
10:35 AM 68.0 °F - 19.6 °F 16% 30.05 in 10.0 mi West 17.3 mph 29.9 mph N/A   Scattered Clouds
10:55 AM 68.4 °F - 18.5 °F 15% 30.05 in 10.0 mi WSW 17.3 mph 26.5 mph N/A   Scattered Clouds
11:15 AM 68.4 °F - 18.3 °F 15% 30.04 in 10.0 mi WSW 11.5 mph 28.8 mph N/A   Clear
11:35 AM 69.6 °F - 17.2 °F 14% 30.04 in 10.0 mi WSW 17.3 mph 24.2 mph N/A   Clear
11:55 AM 70.0 °F - 17.6 °F 14% 30.03 in 10.0 mi SW 16.1 mph 23.0 mph N/A   Clear
12:15 PM 71.1 °F - 18.1 °F 13% 30.03 in 10.0 mi SW 18.4 mph 27.6 mph N/A   Clear
12:35 PM 70.9 °F - 18.0 °F 13% 30.02 in 10.0 mi WSW 23.0 mph 29.9 mph N/A   Clear
12:55 PM 72.7 °F - 17.8 °F 12% 30.02 in 10.0 mi WSW 20.7 mph 33.4 mph N/A   Scattered Clouds
1:15 PM 73.0 °F - 16.7 °F 12% 30.01 in 10.0 mi SW 23.0 mph 29.9 mph N/A   Scattered Clouds
1:35 PM 72.7 °F - 14.0 °F 11% 30.01 in 10.0 mi West 25.3 mph 31.1 mph N/A   Clear
1:55 PM 73.2 °F - 12.6 °F 10% 30.00 in 10.0 mi West 20.7 mph 31.1 mph N/A   Scattered Clouds
2:15 PM 72.0 °F - 10.8 °F 9% 29.99 in 10.0 mi West 23.0 mph 33.4 mph N/A   Clear
2:35 PM 73.8 °F - 12.4 °F 10% 29.98 in 10.0 mi West 16.1 mph 27.6 mph N/A   Clear
2:55 PM 73.6 °F - 10.6 °F 9% 29.98 in 10.0 mi West 21.9 mph 31.1 mph N/A   Clear
3:15 PM 74.1 °F - 10.4 °F 9% 29.97 in 10.0 mi WNW 18.4 mph 28.8 mph N/A   Clear
3:35 PM 74.1 °F - 9.5 °F 8% 29.96 in 10.0 mi WNW 19.6 mph 33.4 mph N/A   Clear
3:55 PM 72.9 °F - 10.8 °F 9% 29.96 in 10.0 mi NW 13.8 mph 27.6 mph N/A   Clear
4:15 PM 74.5 °F - 11.5 °F 9% 29.96 in 10.0 mi West 17.3 mph 28.8 mph N/A   Scattered Clouds
4:35 PM 73.2 °F - 10.8 °F 9% 29.95 in 10.0 mi WNW 12.7 mph 25.3 mph N/A   Scattered Clouds
4:55 PM 72.7 °F - 10.6 °F 9% 29.94 in 10.0 mi WSW 17.3 mph 26.5 mph N/A   Clear
5:15 PM 70.7 °F - 10.9 °F 10% 29.94 in 10.0 mi West 12.7 mph 27.6 mph N/A   Clear
5:35 PM 72.0 °F - 8.8 °F 9% 29.94 in 10.0 mi West 24.2 mph 34.5 mph N/A   Clear
5:55 PM 70.7 °F - 9.5 °F 9% 29.94 in 10.0 mi West 10.4 mph 26.5 mph N/A   Clear
6:15 PM 70.3 °F - 12.2 °F 11% 29.93 in 10.0 mi WSW 20.7 mph 27.6 mph N/A   Clear
6:35 PM 70.0 °F - 12.9 °F 11% 29.93 in 10.0 mi WSW 13.8 mph 33.4 mph N/A   Clear
6:55 PM 68.0 °F - 10.9 °F 11% 29.94 in 10.0 mi West 18.4 mph 23.0 mph N/A   Clear
7:15 PM 67.6 °F - 11.7 °F 11% 29.94 in 10.0 mi West 10.4 mph - N/A   Clear
7:35 PM 66.6 °F - 12.0 °F 12% 29.94 in 10.0 mi Calm Calm - N/A   Clear
7:55 PM 63.5 °F - 13.3 °F 14% 29.93 in 10.0 mi WSW 3.5 mph - N/A   Clear
8:15 PM 62.8 °F - 14.4 °F 15% 29.93 in 10.0 mi West 6.9 mph - N/A   Clear
8:35 PM 62.6 °F - 15.1 °F 16% 29.94 in 10.0 mi West 6.9 mph - N/A   Clear
8:55 PM 60.3 °F - 16.7 °F 18% 29.94 in 10.0 mi West 3.5 mph - N/A   Clear
9:15 PM 59.0 °F - 16.7 °F 19% 29.94 in 10.0 mi West 3.5 mph - N/A   Clear
9:35 PM 59.7 °F - 16.7 °F 19% 29.95 in 10.0 mi West 4.6 mph - N/A   Clear
9:55 PM 56.1 °F - 18.7 °F 23% 29.94 in 10.0 mi West 9.2 mph - N/A   Clear
10:15 PM 57.6 °F - 17.4 °F 21% 29.93 in 10.0 mi SW 6.9 mph - N/A   Clear
10:35 PM 58.1 °F - 16.3 °F 20% 29.93 in 10.0 mi WSW 11.5 mph - N/A   Clear
10:55 PM 59.0 °F - 16.3 °F 19% 29.93 in 10.0 mi SW 10.4 mph 16.1 mph N/A   Clear
11:15 PM 59.9 °F - 14.7 °F 17% 29.93 in 10.0 mi SSW 12.7 mph 18.4 mph N/A   Clear
11:35 PM 58.6 °F - 15.6 °F 19% 29.93 in 10.0 mi SW 11.5 mph 16.1 mph N/A   Clear
11:55 PM 57.9 °F - 15.4 °F 19% 29.93 in 10.0 mi SW 11.5 mph - N/A   Clear